sensor_id;sensor_type;location;lat;lon;timestamp;pressure;altitude;pressure_sealevel;temperature;humidity
78990;BME280;68390;52.130;21.218;2023-08-08T00:00:36;99633.59;;;14.69;83.07
78990;BME280;68390;52.130;21.218;2023-08-08T00:03:01;99638.47;;;14.67;83.30
78990;BME280;68390;52.130;21.218;2023-08-08T00:05:27;99636.78;;;14.66;82.86
78990;BME280;68390;52.130;21.218;2023-08-08T00:07:52;99643.16;;;14.67;81.62
78990;BME280;68390;52.130;21.218;2023-08-08T00:10:18;99635.94;;;14.66;81.49
78990;BME280;68390;52.130;21.218;2023-08-08T00:12:43;99643.38;;;14.65;81.71
78990;BME280;68390;52.130;21.218;2023-08-08T00:15:09;99633.19;;;14.59;81.31
78990;BME280;68390;52.130;21.218;2023-08-08T00:17:34;99642.13;;;14.61;81.19
78990;BME280;68390;52.130;21.218;2023-08-08T00:20:00;99647.00;;;14.59;81.15
78990;BME280;68390;52.130;21.218;2023-08-08T00:22:25;99652.75;;;14.58;80.71
78990;BME280;68390;52.130;21.218;2023-08-08T00:24:50;99656.78;;;14.55;79.75
78990;BME280;68390;52.130;21.218;2023-08-08T00:27:16;99655.94;;;14.55;79.84
78990;BME280;68390;52.130;21.218;2023-08-08T00:29:41;99662.50;;;14.54;79.15
78990;BME280;68390;52.130;21.218;2023-08-08T00:32:06;99663.81;;;14.51;79.21
78990;BME280;68390;52.130;21.218;2023-08-08T00:34:32;99678.69;;;14.50;79.03
78990;BME280;68390;52.130;21.218;2023-08-08T00:36:57;99674.00;;;14.44;79.23
78990;BME280;68390;52.130;21.218;2023-08-08T00:39:22;99673.16;;;14.44;78.51
78990;BME280;68390;52.130;21.218;2023-08-08T00:41:48;99681.66;;;14.42;78.31
78990;BME280;68390;52.130;21.218;2023-08-08T00:44:13;99686.56;;;14.40;78.14
78990;BME280;68390;52.130;21.218;2023-08-08T00:46:39;99685.22;;;14.36;77.75
78990;BME280;68390;52.130;21.218;2023-08-08T00:49:04;99694.56;;;14.35;77.36
78990;BME280;68390;52.130;21.218;2023-08-08T00:51:30;99696.69;;;14.33;76.81
78990;BME280;68390;52.130;21.218;2023-08-08T00:53:56;99692.25;;;14.32;77.24
78990;BME280;68390;52.130;21.218;2023-08-08T00:56:22;99692.69;;;14.29;76.87
78990;BME280;68390;52.130;21.218;2023-08-08T00:58:48;99689.28;;;14.27;76.89
78990;BME280;68390;52.130;21.218;2023-08-08T01:01:16;99693.28;;;14.24;76.67
78990;BME280;68390;52.130;21.218;2023-08-08T01:03:42;99690.53;;;14.24;76.18
78990;BME280;68390;52.130;21.218;2023-08-08T01:06:13;99699.66;;;14.25;76.22
78990;BME280;68390;52.130;21.218;2023-08-08T01:09:00;99702.63;;;14.23;75.86
78990;BME280;68390;52.130;21.218;2023-08-08T01:11:29;99700.13;;;14.22;76.44
78990;BME280;68390;52.130;21.218;2023-08-08T01:13:55;99707.31;;;14.23;75.81
78990;BME280;68390;52.130;21.218;2023-08-08T01:16:22;99696.25;;;14.23;75.04
78990;BME280;68390;52.130;21.218;2023-08-08T01:18:49;99699.66;;;14.25;74.62
78990;BME280;68390;52.130;21.218;2023-08-08T01:21:16;99711.16;;;14.28;74.29
78990;BME280;68390;52.130;21.218;2023-08-08T01:23:52;99721.34;;;14.28;74.95
78990;BME280;68390;52.130;21.218;2023-08-08T01:26:18;99722.19;;;14.28;74.98
78990;BME280;68390;52.130;21.218;2023-08-08T01:28:45;99724.53;;;14.25;74.28
78990;BME280;68390;52.130;21.218;2023-08-08T01:31:13;99734.94;;;14.23;74.52
78990;BME280;68390;52.130;21.218;2023-08-08T01:33:39;99739.59;;;14.22;74.61
78990;BME280;68390;52.130;21.218;2023-08-08T01:36:18;99741.50;;;14.15;74.87
78990;BME280;68390;52.130;21.218;2023-08-08T01:38:47;99744.69;;;14.12;74.22
78990;BME280;68390;52.130;21.218;2023-08-08T01:41:14;99747.03;;;14.09;74.52
78990;BME280;68390;52.130;21.218;2023-08-08T01:43:40;99753.38;;;14.03;75.18
78990;BME280;68390;52.130;21.218;2023-08-08T01:46:07;99755.06;;;13.97;75.16
78990;BME280;68390;52.130;21.218;2023-08-08T01:48:33;99753.97;;;13.91;75.75
78990;BME280;68390;52.130;21.218;2023-08-08T01:50:59;99761.63;;;13.89;75.49
78990;BME280;68390;52.130;21.218;2023-08-08T01:53:24;99747.59;;;13.84;75.90
78990;BME280;68390;52.130;21.218;2023-08-08T01:55:50;99754.38;;;13.82;75.61
78990;BME280;68390;52.130;21.218;2023-08-08T01:58:15;99755.88;;;13.84;74.88
78990;BME280;68390;52.130;21.218;2023-08-08T02:00:41;99762.44;;;13.83;75.49
78990;BME280;68390;52.130;21.218;2023-08-08T02:03:09;99766.25;;;13.82;75.33
78990;BME280;68390;52.130;21.218;2023-08-08T02:05:34;99767.56;;;13.86;74.33
78990;BME280;68390;52.130;21.218;2023-08-08T02:07:59;99766.50;;;13.87;74.62
78990;BME280;68390;52.130;21.218;2023-08-08T02:10:25;99780.75;;;13.91;74.91
78990;BME280;68390;52.130;21.218;2023-08-08T02:12:50;99770.53;;;13.91;74.66
78990;BME280;68390;52.130;21.218;2023-08-08T02:15:15;99782.66;;;13.90;74.32
78990;BME280;68390;52.130;21.218;2023-08-08T02:17:41;99781.34;;;13.86;74.65
78990;BME280;68390;52.130;21.218;2023-08-08T02:20:06;99781.34;;;13.86;74.93
78990;BME280;68390;52.130;21.218;2023-08-08T02:22:32;99788.13;;;13.77;74.94
78990;BME280;68390;52.130;21.218;2023-08-08T02:24:58;99787.06;;;13.78;75.29
78990;BME280;68390;52.130;21.218;2023-08-08T02:27:23;99793.63;;;13.77;75.27
78990;BME280;68390;52.130;21.218;2023-08-08T02:29:48;99789.38;;;13.75;75.23
78990;BME280;68390;52.130;21.218;2023-08-08T02:32:14;99797.84;;;13.73;75.52
78990;BME280;68390;52.130;21.218;2023-08-08T02:34:39;99797.19;;;13.71;75.53
78990;BME280;68390;52.130;21.218;2023-08-08T02:37:04;99802.09;;;13.69;75.94
78990;BME280;68390;52.130;21.218;2023-08-08T02:39:30;99806.97;;;13.67;76.13
78990;BME280;68390;52.130;21.218;2023-08-08T02:41:55;99810.97;;;13.65;76.19
78990;BME280;68390;52.130;21.218;2023-08-08T02:44:21;99805.84;;;13.62;76.58
78990;BME280;68390;52.130;21.218;2023-08-08T02:46:47;99814.78;;;13.57;76.81
78990;BME280;68390;52.130;21.218;2023-08-08T02:49:13;99816.63;;;13.50;77.51
78990;BME280;68390;52.130;21.218;2023-08-08T02:51:38;99817.03;;;13.47;76.87
78990;BME280;68390;52.130;21.218;2023-08-08T02:54:03;99815.50;;;13.38;77.62
78990;BME280;68390;52.130;21.218;2023-08-08T02:56:29;99820.13;;;13.31;77.91
78990;BME280;68390;52.130;21.218;2023-08-08T02:58:54;99826.91;;;13.28;78.27
78990;BME280;68390;52.130;21.218;2023-08-08T03:01:19;99833.88;;;13.24;78.35
78990;BME280;68390;52.130;21.218;2023-08-08T03:03:45;99837.22;;;13.19;78.14
78990;BME280;68390;52.130;21.218;2023-08-08T03:06:10;99843.16;;;13.16;78.18
78990;BME280;68390;52.130;21.218;2023-08-08T03:08:36;99840.94;;;13.12;77.45
78990;BME280;68390;52.130;21.218;2023-08-08T03:11:01;99843.47;;;13.07;77.95
78990;BME280;68390;52.130;21.218;2023-08-08T03:13:26;99841.97;;;13.04;77.05
78990;BME280;68390;52.130;21.218;2023-08-08T03:15:52;99849.75;;;13.01;77.32
78990;BME280;68390;52.130;21.218;2023-08-08T03:18:19;99860.97;;;12.99;77.97
78990;BME280;68390;52.130;21.218;2023-08-08T03:20:44;99854.56;;;12.92;79.11
78990;BME280;68390;52.130;21.218;2023-08-08T03:23:10;99858.13;;;12.86;78.59
78990;BME280;68390;52.130;21.218;2023-08-08T03:25:35;99858.91;;;12.80;78.21
78990;BME280;68390;52.130;21.218;2023-08-08T03:28:01;99866.75;;;12.76;78.52
78990;BME280;68390;52.130;21.218;2023-08-08T03:30:26;99862.47;;;12.74;77.58
78990;BME280;68390;52.130;21.218;2023-08-08T03:32:51;99867.13;;;12.73;78.35
78990;BME280;68390;52.130;21.218;2023-08-08T03:35:17;99873.22;;;12.69;77.53
78990;BME280;68390;52.130;21.218;2023-08-08T03:37:42;99871.31;;;12.69;78.04
78990;BME280;68390;52.130;21.218;2023-08-08T03:40:08;99880.81;;;12.67;77.82
78990;BME280;68390;52.130;21.218;2023-08-08T03:42:34;99882.94;;;12.65;78.21
78990;BME280;68390;52.130;21.218;2023-08-08T03:44:59;99879.91;;;12.60;80.03
78990;BME280;68390;52.130;21.218;2023-08-08T03:47:24;99893.00;;;12.58;79.47
78990;BME280;68390;52.130;21.218;2023-08-08T03:49:50;99893.81;;;12.52;80.89
78990;BME280;68390;52.130;21.218;2023-08-08T03:52:15;99899.69;;;12.48;79.58
78990;BME280;68390;52.130;21.218;2023-08-08T03:54:41;99892.03;;;12.44;79.60
78990;BME280;68390;52.130;21.218;2023-08-08T03:57:06;99907.91;;;12.42;79.52
78990;BME280;68390;52.130;21.218;2023-08-08T03:59:32;99908.09;;;12.40;80.39
78990;BME280;68390;52.130;21.218;2023-08-08T04:01:57;99910.84;;;12.40;79.39
78990;BME280;68390;52.130;21.218;2023-08-08T04:04:22;99927.38;;;12.40;79.70
78990;BME280;68390;52.130;21.218;2023-08-08T04:06:48;99921.84;;;12.40;80.71
78990;BME280;68390;52.130;21.218;2023-08-08T04:09:13;99919.97;;;12.41;79.60
78990;BME280;68390;52.130;21.218;2023-08-08T04:11:38;99921.66;;;12.42;79.77
78990;BME280;68390;52.130;21.218;2023-08-08T04:14:04;99930.41;;;12.45;79.52
78990;BME280;68390;52.130;21.218;2023-08-08T04:16:29;99921.72;;;12.48;80.12
78990;BME280;68390;52.130;21.218;2023-08-08T04:18:54;99937.03;;;12.51;79.43
78990;BME280;68390;52.130;21.218;2023-08-08T04:21:20;99940.63;;;12.52;80.39
78990;BME280;68390;52.130;21.218;2023-08-08T04:23:45;99944.72;;;12.56;79.72
78990;BME280;68390;52.130;21.218;2023-08-08T04:26:11;99945.16;;;12.59;79.98
78990;BME280;68390;52.130;21.218;2023-08-08T04:28:36;99943.06;;;12.61;80.27
78990;BME280;68390;52.130;21.218;2023-08-08T04:31:01;99954.56;;;12.65;80.07
78990;BME280;68390;52.130;21.218;2023-08-08T04:33:27;99946.94;;;12.67;79.79
78990;BME280;68390;52.130;21.218;2023-08-08T04:35:52;99951.69;;;12.73;79.49
78990;BME280;68390;52.130;21.218;2023-08-08T04:38:18;99963.38;;;12.75;80.11
78990;BME280;68390;52.130;21.218;2023-08-08T04:40:43;99959.16;;;12.79;79.25
78990;BME280;68390;52.130;21.218;2023-08-08T04:43:08;99959.25;;;12.85;79.78
78990;BME280;68390;52.130;21.218;2023-08-08T04:45:33;99966.72;;;12.92;79.30
78990;BME280;68390;52.130;21.218;2023-08-08T04:47:59;99958.25;;;12.93;79.48
78990;BME280;68390;52.130;21.218;2023-08-08T04:50:24;99963.81;;;13.00;79.88
78990;BME280;68390;52.130;21.218;2023-08-08T04:52:50;99966.84;;;13.05;78.72
78990;BME280;68390;52.130;21.218;2023-08-08T04:55:15;99967.09;;;13.10;79.06
78990;BME280;68390;52.130;21.218;2023-08-08T04:57:41;99973.09;;;13.13;78.83
78990;BME280;68390;52.130;21.218;2023-08-08T05:00:06;99974.22;;;13.19;78.11
78990;BME280;68390;52.130;21.218;2023-08-08T05:02:34;99981.91;;;13.23;77.54
78990;BME280;68390;52.130;21.218;2023-08-08T05:04:59;99977.06;;;13.26;77.20
78990;BME280;68390;52.130;21.218;2023-08-08T05:07:26;99973.06;;;13.28;77.16
78990;BME280;68390;52.130;21.218;2023-08-08T05:09:51;99979.41;;;13.29;77.89
78990;BME280;68390;52.130;21.218;2023-08-08T05:12:17;99987.09;;;13.33;78.10
78990;BME280;68390;52.130;21.218;2023-08-08T05:14:42;99988.84;;;13.41;76.83
78990;BME280;68390;52.130;21.218;2023-08-08T05:17:08;99994.09;;;13.57;77.21
78990;BME280;68390;52.130;21.218;2023-08-08T05:19:33;99998.00;;;13.69;77.25
78990;BME280;68390;52.130;21.218;2023-08-08T05:21:59;99995.09;;;13.77;75.32
78990;BME280;68390;52.130;21.218;2023-08-08T05:24:24;99997.69;;;13.85;75.38
78990;BME280;68390;52.130;21.218;2023-08-08T05:26:50;99992.22;;;13.92;75.98
78990;BME280;68390;52.130;21.218;2023-08-08T05:29:15;99999.50;;;14.00;74.33
78990;BME280;68390;52.130;21.218;2023-08-08T05:31:41;100004.84;;;14.08;75.89
78990;BME280;68390;52.130;21.218;2023-08-08T05:34:06;99999.81;;;14.18;76.03
78990;BME280;68390;52.130;21.218;2023-08-08T05:36:32;100000.97;;;14.30;74.08
78990;BME280;68390;52.130;21.218;2023-08-08T05:38:58;100005.28;;;14.39;74.22
78990;BME280;68390;52.130;21.218;2023-08-08T05:41:23;100009.97;;;14.45;73.63
78990;BME280;68390;52.130;21.218;2023-08-08T05:43:49;100008.31;;;14.51;72.55
78990;BME280;68390;52.130;21.218;2023-08-08T05:46:14;100020.69;;;14.61;73.26
78990;BME280;68390;52.130;21.218;2023-08-08T05:48:39;100013.09;;;14.77;71.81
78990;BME280;68390;52.130;21.218;2023-08-08T05:51:05;100005.91;;;14.89;72.67
78990;BME280;68390;52.130;21.218;2023-08-08T05:53:31;100006.78;;;14.96;70.84
78990;BME280;68390;52.130;21.218;2023-08-08T05:55:57;100011.69;;;15.00;71.35
78990;BME280;68390;52.130;21.218;2023-08-08T05:58:22;100015.50;;;15.06;71.33
78990;BME280;68390;52.130;21.218;2023-08-08T06:00:48;100016.19;;;15.15;69.69
78990;BME280;68390;52.130;21.218;2023-08-08T06:03:13;100027.69;;;15.18;69.40
78990;BME280;68390;52.130;21.218;2023-08-08T06:05:38;100029.63;;;15.24;68.59
78990;BME280;68390;52.130;21.218;2023-08-08T06:08:04;100019.16;;;15.26;68.30
78990;BME280;68390;52.130;21.218;2023-08-08T06:10:32;100037.31;;;15.35;70.30
78990;BME280;68390;52.130;21.218;2023-08-08T06:12:57;100029.63;;;15.37;68.82
78990;BME280;68390;52.130;21.218;2023-08-08T06:15:22;100040.50;;;15.46;69.55
78990;BME280;68390;52.130;21.218;2023-08-08T06:17:48;100045.00;;;15.47;68.96
78990;BME280;68390;52.130;21.218;2023-08-08T06:20:14;100045.19;;;15.45;68.45
78990;BME280;68390;52.130;21.218;2023-08-08T06:22:40;100033.91;;;15.47;68.23
78990;BME280;68390;52.130;21.218;2023-08-08T06:25:06;100044.75;;;15.48;68.89
78990;BME280;68390;52.130;21.218;2023-08-08T06:27:31;100044.53;;;15.50;67.42
78990;BME280;68390;52.130;21.218;2023-08-08T06:29:57;100038.84;;;15.58;68.35
78990;BME280;68390;52.130;21.218;2023-08-08T06:32:22;100049.06;;;15.64;67.81
78990;BME280;68390;52.130;21.218;2023-08-08T06:34:47;100050.78;;;15.65;66.56
78990;BME280;68390;52.130;21.218;2023-08-08T06:37:13;100049.50;;;15.61;66.90
78990;BME280;68390;52.130;21.218;2023-08-08T06:39:38;100060.16;;;15.64;67.04
78990;BME280;68390;52.130;21.218;2023-08-08T06:42:05;100049.09;;;15.57;65.85
78990;BME280;68390;52.130;21.218;2023-08-08T06:44:41;100067.81;;;15.62;66.79
78990;BME280;68390;52.130;21.218;2023-08-08T06:47:06;100065.47;;;15.65;65.31
78990;BME280;68390;52.130;21.218;2023-08-08T06:49:32;100062.91;;;15.70;65.91
78990;BME280;68390;52.130;21.218;2023-08-08T06:51:57;100058.66;;;15.74;66.69
78990;BME280;68390;52.130;21.218;2023-08-08T06:54:22;100061.84;;;15.78;64.59
78990;BME280;68390;52.130;21.218;2023-08-08T06:56:48;100067.41;;;15.85;65.66
78990;BME280;68390;52.130;21.218;2023-08-08T06:59:13;100069.94;;;15.93;64.18
78990;BME280;68390;52.130;21.218;2023-08-08T07:01:38;100067.81;;;15.95;64.09
78990;BME280;68390;52.130;21.218;2023-08-08T07:04:04;100066.97;;;15.94;63.14
78990;BME280;68390;52.130;21.218;2023-08-08T07:06:29;100064.41;;;15.99;64.66
78990;BME280;68390;52.130;21.218;2023-08-08T07:08:55;100072.28;;;16.02;64.13
78990;BME280;68390;52.130;21.218;2023-08-08T07:11:20;100070.78;;;16.13;63.35
78990;BME280;68390;52.130;21.218;2023-08-08T07:13:45;100062.03;;;16.23;62.68
78990;BME280;68390;52.130;21.218;2023-08-08T07:16:11;100055.81;;;16.40;61.64
78990;BME280;68390;52.130;21.218;2023-08-08T07:18:36;100053.72;;;16.36;62.43
78990;BME280;68390;52.130;21.218;2023-08-08T07:21:02;100050.09;;;16.35;62.12
78990;BME280;68390;52.130;21.218;2023-08-08T07:23:28;100055.19;;;16.45;61.46
78990;BME280;68390;52.130;21.218;2023-08-08T07:25:53;100054.13;;;16.46;61.63
78990;BME280;68390;52.130;21.218;2023-08-08T07:28:19;100056.25;;;16.44;60.89
78990;BME280;68390;52.130;21.218;2023-08-08T07:30:45;100062.22;;;16.47;61.41
78990;BME280;68390;52.130;21.218;2023-08-08T07:33:10;100068.81;;;16.46;60.84
78990;BME280;68390;52.130;21.218;2023-08-08T07:35:35;100067.31;;;16.57;61.13
78990;BME280;68390;52.130;21.218;2023-08-08T07:38:01;100057.47;;;16.61;60.63
78990;BME280;68390;52.130;21.218;2023-08-08T07:40:26;100066.84;;;16.73;60.03
78990;BME280;68390;52.130;21.218;2023-08-08T07:42:52;100067.69;;;16.74;60.76
78990;BME280;68390;52.130;21.218;2023-08-08T07:45:17;100059.13;;;16.82;59.70
78990;BME280;68390;52.130;21.218;2023-08-08T07:47:43;100063.13;;;16.93;59.04
78990;BME280;68390;52.130;21.218;2023-08-08T07:50:09;100061.38;;;17.05;59.72
78990;BME280;68390;52.130;21.218;2023-08-08T07:52:35;100066.22;;;17.22;60.39
78990;BME280;68390;52.130;21.218;2023-08-08T07:55:01;100063.19;;;17.24;59.10
78990;BME280;68390;52.130;21.218;2023-08-08T07:57:27;100061.47;;;17.30;57.36
78990;BME280;68390;52.130;21.218;2023-08-08T07:59:52;100065.25;;;17.42;58.34
78990;BME280;68390;52.130;21.218;2023-08-08T08:02:17;100060.22;;;17.57;58.55
78990;BME280;68390;52.130;21.218;2023-08-08T08:04:43;100056.38;;;17.65;57.50
78990;BME280;68390;52.130;21.218;2023-08-08T08:07:08;100056.09;;;17.73;57.36
78990;BME280;68390;52.130;21.218;2023-08-08T08:09:33;100059.38;;;17.88;56.88
78990;BME280;68390;52.130;21.218;2023-08-08T08:11:59;100063.53;;;18.04;57.23
78990;BME280;68390;52.130;21.218;2023-08-08T08:14:24;100063.34;;;17.98;55.54
78990;BME280;68390;52.130;21.218;2023-08-08T08:16:50;100062.56;;;17.91;54.58
78990;BME280;68390;52.130;21.218;2023-08-08T08:19:16;100064.56;;;17.84;56.94
78990;BME280;68390;52.130;21.218;2023-08-08T08:21:41;100071.91;;;17.72;56.50
78990;BME280;68390;52.130;21.218;2023-08-08T08:24:06;100063.34;;;17.74;55.63
78990;BME280;68390;52.130;21.218;2023-08-08T08:26:32;100074.41;;;17.80;56.06
78990;BME280;68390;52.130;21.218;2023-08-08T08:28:58;100065.41;;;17.85;55.34
78990;BME280;68390;52.130;21.218;2023-08-08T08:31:23;100073.75;;;17.85;56.05
78990;BME280;68390;52.130;21.218;2023-08-08T08:33:49;100063.34;;;17.74;53.71
78990;BME280;68390;52.130;21.218;2023-08-08T08:36:14;100064.38;;;17.79;55.16
78990;BME280;68390;52.130;21.218;2023-08-08T08:38:39;100068.06;;;17.73;54.89
78990;BME280;68390;52.130;21.218;2023-08-08T08:41:05;100072.56;;;17.68;54.00
78990;BME280;68390;52.130;21.218;2023-08-08T08:43:31;100077.06;;;17.62;54.55
78990;BME280;68390;52.130;21.218;2023-08-08T08:46:00;100067.50;;;17.65;54.06
78990;BME280;68390;52.130;21.218;2023-08-08T08:48:26;100073.34;;;17.81;55.82
78990;BME280;68390;52.130;21.218;2023-08-08T08:50:51;100066.88;;;17.87;53.98
78990;BME280;68390;52.130;21.218;2023-08-08T08:53:17;100074.09;;;17.95;54.71
78990;BME280;68390;52.130;21.218;2023-08-08T08:55:43;100084.00;;;18.09;55.58
78990;BME280;68390;52.130;21.218;2023-08-08T08:58:10;100087.06;;;18.01;52.48
78990;BME280;68390;52.130;21.218;2023-08-08T09:00:36;100072.50;;;18.06;52.48
78990;BME280;68390;52.130;21.218;2023-08-08T09:03:01;100080.28;;;18.40;55.80
78990;BME280;68390;52.130;21.218;2023-08-08T09:05:27;100073.50;;;18.36;51.96
78990;BME280;68390;52.130;21.218;2023-08-08T09:07:53;100080.34;;;18.33;52.15
78990;BME280;68390;52.130;21.218;2023-08-08T09:10:18;100075.13;;;18.68;52.78
78990;BME280;68390;52.130;21.218;2023-08-08T09:12:44;100073.63;;;18.84;52.23
78990;BME280;68390;52.130;21.218;2023-08-08T09:15:13;100080.19;;;18.90;50.46
78990;BME280;68390;52.130;21.218;2023-08-08T09:17:43;100078.25;;;18.90;50.57
78990;BME280;68390;52.130;21.218;2023-08-08T09:20:09;100089.69;;;19.00;49.19
78990;BME280;68390;52.130;21.218;2023-08-08T09:22:36;100081.97;;;18.84;49.87
78990;BME280;68390;52.130;21.218;2023-08-08T09:25:03;100092.34;;;18.77;49.26
78990;BME280;68390;52.130;21.218;2023-08-08T09:27:28;100082.69;;;18.98;49.85
78990;BME280;68390;52.130;21.218;2023-08-08T09:29:54;100087.25;;;19.40;51.11
78990;BME280;68390;52.130;21.218;2023-08-08T09:32:20;100096.56;;;19.64;49.19
78990;BME280;68390;52.130;21.218;2023-08-08T09:34:45;100099.63;;;19.74;48.55
78990;BME280;68390;52.130;21.218;2023-08-08T09:37:11;100092.34;;;19.73;49.98
78990;BME280;68390;52.130;21.218;2023-08-08T09:39:37;100097.53;;;19.58;48.47
78990;BME280;68390;52.130;21.218;2023-08-08T09:42:03;100091.00;;;19.64;46.99
78990;BME280;68390;52.130;21.218;2023-08-08T09:44:31;100084.22;;;19.60;48.79
78990;BME280;68390;52.130;21.218;2023-08-08T09:47:00;100099.00;;;19.42;47.58
78990;BME280;68390;52.130;21.218;2023-08-08T09:49:25;100100.31;;;19.10;47.56
78990;BME280;68390;52.130;21.218;2023-08-08T09:51:51;100103.63;;;18.82;47.32
78990;BME280;68390;52.130;21.218;2023-08-08T09:54:17;100095.50;;;18.62;48.72
78990;BME280;68390;52.130;21.218;2023-08-08T09:56:43;100102.00;;;18.50;49.21
78990;BME280;68390;52.130;21.218;2023-08-08T09:59:09;100098.63;;;18.48;49.08
78990;BME280;68390;52.130;21.218;2023-08-08T10:01:34;100099.59;;;18.35;49.34
78990;BME280;68390;52.130;21.218;2023-08-08T10:04:02;100102.41;;;18.28;49.37
78990;BME280;68390;52.130;21.218;2023-08-08T10:06:28;100098.41;;;18.24;50.56
78990;BME280;68390;52.130;21.218;2023-08-08T10:08:55;100100.97;;;18.26;47.61
78990;BME280;68390;52.130;21.218;2023-08-08T10:11:22;100095.22;;;18.21;48.62
78990;BME280;68390;52.130;21.218;2023-08-08T10:13:50;100098.06;;;18.14;48.86
78990;BME280;68390;52.130;21.218;2023-08-08T10:16:17;100101.00;;;18.19;48.64
78990;BME280;68390;52.130;21.218;2023-08-08T10:18:45;100092.56;;;18.32;49.74
78990;BME280;68390;52.130;21.218;2023-08-08T10:21:11;100096.19;;;18.58;46.83
78990;BME280;68390;52.130;21.218;2023-08-08T10:23:39;100086.91;;;18.64;52.41
78990;BME280;68390;52.130;21.218;2023-08-08T10:26:05;100088.66;;;18.58;46.41
78990;BME280;68390;52.130;21.218;2023-08-08T10:28:52;100090.19;;;18.54;47.67
78990;BME280;68390;52.130;21.218;2023-08-08T10:31:20;100093.06;;;18.48;48.08
78990;BME280;68390;52.130;21.218;2023-08-08T10:33:46;100089.31;;;18.36;46.27
78990;BME280;68390;52.130;21.218;2023-08-08T10:36:11;100096.06;;;18.21;46.94
78990;BME280;68390;52.130;21.218;2023-08-08T10:38:43;100102.34;;;18.17;46.40
78990;BME280;68390;52.130;21.218;2023-08-08T10:41:11;100112.81;;;18.15;47.13
78990;BME280;68390;52.130;21.218;2023-08-08T10:43:37;100113.25;;;18.12;47.55
78990;BME280;68390;52.130;21.218;2023-08-08T10:46:04;100109.00;;;18.34;47.35
78990;BME280;68390;52.130;21.218;2023-08-08T10:48:30;100114.13;;;18.37;47.27
78990;BME280;68390;52.130;21.218;2023-08-08T10:50:59;100111.00;;;18.27;48.07
78990;BME280;68390;52.130;21.218;2023-08-08T10:53:26;100115.72;;;18.26;49.23
78990;BME280;68390;52.130;21.218;2023-08-08T10:56:01;100112.00;;;18.32;48.13
78990;BME280;68390;52.130;21.218;2023-08-08T10:58:40;100117.50;;;18.39;50.50
78990;BME280;68390;52.130;21.218;2023-08-08T11:01:06;100105.41;;;18.52;47.72
78990;BME280;68390;52.130;21.218;2023-08-08T11:03:37;100111.41;;;18.92;49.37
78990;BME280;68390;52.130;21.218;2023-08-08T11:06:04;100107.31;;;19.13;46.36
78990;BME280;68390;52.130;21.218;2023-08-08T11:08:31;100106.84;;;19.16;45.80
78990;BME280;68390;52.130;21.218;2023-08-08T11:10:57;100112.88;;;19.31;44.38
78990;BME280;68390;52.130;21.218;2023-08-08T11:13:23;100112.56;;;19.39;44.61
78990;BME280;68390;52.130;21.218;2023-08-08T11:15:48;100113.41;;;19.39;45.38
78990;BME280;68390;52.130;21.218;2023-08-08T11:18:13;100119.66;;;19.35;44.01
78990;BME280;68390;52.130;21.218;2023-08-08T11:20:39;100107.78;;;19.28;44.95
78990;BME280;68390;52.130;21.218;2023-08-08T11:23:05;100122.59;;;19.58;43.88
78990;BME280;68390;52.130;21.218;2023-08-08T11:25:36;100126.47;;;19.57;43.11
78990;BME280;68390;52.130;21.218;2023-08-08T11:28:01;100116.28;;;19.51;43.31
78990;BME280;68390;52.130;21.218;2023-08-08T11:30:29;100116.09;;;19.46;44.15
78990;BME280;68390;52.130;21.218;2023-08-08T11:32:55;100112.06;;;19.42;43.79
78990;BME280;68390;52.130;21.218;2023-08-08T11:35:24;100121.34;;;19.54;45.12
78990;BME280;68390;52.130;21.218;2023-08-08T11:37:51;100118.66;;;19.77;43.77
78990;BME280;68390;52.130;21.218;2023-08-08T11:40:18;100126.75;;;20.09;43.94
78990;BME280;68390;52.130;21.218;2023-08-08T11:42:44;100115.47;;;20.15;42.02
78990;BME280;68390;52.130;21.218;2023-08-08T11:45:11;100127.78;;;20.38;44.67
78990;BME280;68390;52.130;21.218;2023-08-08T11:47:41;100130.13;;;20.52;42.37
78990;BME280;68390;52.130;21.218;2023-08-08T11:50:08;100123.78;;;20.57;42.70
78990;BME280;68390;52.130;21.218;2023-08-08T11:52:40;100127.19;;;20.47;43.03
78990;BME280;68390;52.130;21.218;2023-08-08T11:55:09;100134.13;;;20.45;42.46
78990;BME280;68390;52.130;21.218;2023-08-08T11:57:36;100135.63;;;20.29;42.65
78990;BME280;68390;52.130;21.218;2023-08-08T12:00:04;100135.50;;;20.12;40.40
78990;BME280;68390;52.130;21.218;2023-08-08T12:02:32;100138.72;;;19.98;40.09
78990;BME280;68390;52.130;21.218;2023-08-08T12:05:04;100141.47;;;19.86;42.79
78990;BME280;68390;52.130;21.218;2023-08-08T12:07:32;100143.47;;;19.67;41.54
78990;BME280;68390;52.130;21.218;2023-08-08T12:09:58;100134.50;;;19.47;42.60
78990;BME280;68390;52.130;21.218;2023-08-08T12:12:26;100141.31;;;19.33;42.30
78990;BME280;68390;52.130;21.218;2023-08-08T12:14:54;100141.63;;;19.25;43.01
78990;BME280;68390;52.130;21.218;2023-08-08T12:17:21;100135.44;;;19.23;43.11
78990;BME280;68390;52.130;21.218;2023-08-08T12:19:47;100140.41;;;19.39;44.29
78990;BME280;68390;52.130;21.218;2023-08-08T12:22:13;100142.22;;;19.63;43.30
78990;BME280;68390;52.130;21.218;2023-08-08T12:24:39;100143.16;;;19.87;42.60
78990;BME280;68390;52.130;21.218;2023-08-08T12:27:04;100136.50;;;19.88;39.41
78990;BME280;68390;52.130;21.218;2023-08-08T12:29:30;100135.31;;;19.96;40.31
78990;BME280;68390;52.130;21.218;2023-08-08T12:31:56;100131.94;;;20.05;41.84
78990;BME280;68390;52.130;21.218;2023-08-08T12:34:21;100133.41;;;20.08;39.81
78990;BME280;68390;52.130;21.218;2023-08-08T12:36:47;100137.69;;;20.22;42.04
78990;BME280;68390;52.130;21.218;2023-08-08T12:39:12;100135.75;;;20.23;39.34